createdAt,value
2022-12-12T00:02:10.983Z,24.90
2022-12-12T00:04:37.657Z,25.15
2022-12-12T00:07:04.340Z,24.48
2022-12-12T00:09:30.867Z,25.58
2022-12-12T00:11:57.413Z,26.05
2022-12-12T00:14:23.930Z,26.85
2022-12-12T00:16:50.420Z,26.27
2022-12-12T00:19:16.986Z,26.35
2022-12-12T00:21:43.545Z,26.92
2022-12-12T00:24:10.816Z,24.30
2022-12-12T00:26:37.424Z,23.85
2022-12-12T00:29:04.492Z,24.42
2022-12-12T00:31:31.443Z,24.30
2022-12-12T00:33:58.385Z,24.90
2022-12-12T00:36:28.623Z,28.90
2022-12-12T00:38:55.715Z,27.50
2022-12-12T00:41:22.797Z,27.95
2022-12-12T00:43:49.894Z,26.60
2022-12-12T00:46:18.932Z,23.77
2022-12-12T00:48:45.550Z,24.67
2022-12-12T00:51:19.795Z,24.33
2022-12-12T00:53:47.221Z,25.80
2022-12-12T00:56:16.148Z,24.25
2022-12-12T00:58:43.037Z,27.52
2022-12-12T01:01:15.229Z,25.50
2022-12-12T01:03:42.489Z,24.40
2022-12-12T01:06:10.148Z,26.60
2022-12-12T01:08:38.021Z,26.08
2022-12-12T01:11:05.428Z,25.33
2022-12-12T01:13:32.137Z,26.17
2022-12-12T01:15:58.928Z,25.50
2022-12-12T01:18:25.701Z,25.27
2022-12-12T01:20:52.571Z,25.92
2022-12-12T01:23:19.315Z,26.85
2022-12-12T01:25:45.937Z,25.73
2022-12-12T01:28:12.837Z,27.08
2022-12-12T01:30:39.461Z,24.73
2022-12-12T01:33:06.113Z,23.90
2022-12-12T01:35:34.548Z,25.42
2022-12-12T01:38:01.123Z,30.20
2022-12-12T01:40:30.613Z,29.95
2022-12-12T01:42:57.259Z,25.17
2022-12-12T01:45:57.884Z,25.10
2022-12-12T01:48:30.275Z,26.80
2022-12-12T01:50:59.721Z,29.77
2022-12-12T01:53:29.568Z,27.48
2022-12-12T01:55:57.396Z,28.23
2022-12-12T01:58:24.861Z,23.48
2022-12-12T02:00:51.896Z,29.90
2022-12-12T02:03:18.579Z,27.52
2022-12-12T02:05:54.789Z,27.13
2022-12-12T02:08:23.150Z,27.80
2022-12-12T02:10:50.000Z,26.83
2022-12-12T02:13:20.419Z,26.33
2022-12-12T02:16:23.745Z,27.92
2022-12-12T02:19:11.835Z,27.60
2022-12-12T02:21:42.238Z,28.23
2022-12-12T02:24:40.805Z,29.10
2022-12-12T02:27:44.852Z,25.92
2022-12-12T02:30:18.299Z,28.48
2022-12-12T02:32:50.171Z,27.50
2022-12-12T02:35:35.052Z,24.90
2022-12-12T02:38:34.455Z,28.20
2022-12-12T02:41:45.857Z,28.83
2022-12-12T02:44:24.616Z,29.02
2022-12-12T02:47:04.033Z,26.35
2022-12-12T02:49:38.875Z,29.35
2022-12-12T02:52:07.085Z,28.60
2022-12-12T02:54:34.753Z,26.75
2022-12-12T02:57:02.383Z,26.65
2022-12-12T02:59:40.279Z,31.27
2022-12-12T03:02:25.409Z,31.83
2022-12-12T03:05:28.989Z,30.30
2022-12-12T03:08:36.553Z,30.92
2022-12-12T03:11:12.826Z,26.77
2022-12-12T03:13:46.155Z,31.25
2022-12-12T03:16:38.747Z,30.02
2022-12-12T03:19:27.115Z,31.85
2022-12-12T03:22:07.120Z,33.03
2022-12-12T03:25:03.288Z,30.48
2022-12-12T03:27:47.238Z,28.92
2022-12-12T03:30:16.423Z,41.38
2022-12-12T03:32:50.823Z,29.48
2022-12-12T03:35:26.298Z,29.13
2022-12-12T03:40:33.318Z,29.45
2022-12-12T03:43:07.591Z,29.60
2022-12-12T03:45:53.883Z,31.40
2022-12-12T03:48:29.311Z,31.75
2022-12-12T03:53:38.460Z,28.58
2022-12-12T03:56:31.695Z,28.38
2022-12-12T03:59:14.800Z,32.47
2022-12-12T04:01:50.018Z,26.75
2022-12-12T04:04:41.697Z,30.23
2022-12-12T04:07:21.807Z,33.25
2022-12-12T04:10:07.656Z,28.27
2022-12-12T04:15:41.283Z,31.42
2022-12-12T04:18:25.455Z,26.90
2022-12-12T04:21:32.802Z,27.83
2022-12-12T04:24:23.627Z,30.65
2022-12-12T04:27:10.251Z,26.73
2022-12-12T04:29:50.732Z,29.75
2022-12-12T04:32:17.155Z,28.40
2022-12-12T04:35:02.250Z,30.30
2022-12-12T04:37:39.089Z,30.88
2022-12-12T04:40:10.399Z,29.02
2022-12-12T04:42:43.391Z,28.02
2022-12-12T04:45:15.460Z,28.15
2022-12-12T04:47:46.660Z,29.75
2022-12-12T04:50:14.292Z,27.23
2022-12-12T04:52:43.309Z,27.60
2022-12-12T04:55:20.004Z,30.30
2022-12-12T04:57:50.192Z,26.55
2022-12-12T05:00:17.470Z,28.58
2022-12-12T05:02:54.595Z,30.20
2022-12-12T05:05:39.453Z,26.63
2022-12-12T05:08:39.289Z,29.52
2022-12-12T05:11:06.855Z,32.97
2022-12-12T05:13:36.952Z,32.05
2022-12-12T05:16:35.220Z,26.75
2022-12-12T05:19:02.759Z,27.48
2022-12-12T05:21:29.285Z,29.38
2022-12-12T05:23:55.906Z,30.40
2022-12-12T05:26:31.557Z,30.25
2022-12-12T05:29:03.669Z,29.13
2022-12-12T05:31:33.357Z,29.80
2022-12-12T05:33:59.932Z,26.90
2022-12-12T05:36:26.611Z,29.13
2022-12-12T05:38:53.228Z,30.35
2022-12-12T05:41:19.878Z,31.90
2022-12-12T05:43:46.500Z,25.88
2022-12-12T05:46:13.805Z,33.47
2022-12-12T05:48:40.659Z,27.17
2022-12-12T05:51:07.271Z,28.10
2022-12-12T05:53:41.981Z,32.35
2022-12-12T05:58:41.728Z,28.27
2022-12-12T06:01:09.109Z,29.52
2022-12-12T06:03:35.769Z,29.55
2022-12-12T06:06:06.573Z,29.45
2022-12-12T06:08:33.240Z,28.85
2022-12-12T06:10:59.865Z,29.65
2022-12-12T06:13:26.426Z,31.38
2022-12-12T06:15:53.018Z,31.25
2022-12-12T06:18:19.683Z,29.08
2022-12-12T06:20:46.274Z,30.52
2022-12-12T06:23:12.961Z,30.92
2022-12-12T06:25:39.657Z,31.67
2022-12-12T06:28:06.225Z,28.35
2022-12-12T06:30:33.484Z,32.08
2022-12-12T06:33:00.036Z,32.40
2022-12-12T06:35:26.605Z,28.80
2022-12-12T06:37:53.161Z,34.38
2022-12-12T06:40:19.748Z,26.83
2022-12-12T06:42:48.442Z,30.27
2022-12-12T06:45:16.134Z,32.85
2022-12-12T06:47:42.880Z,33.70
2022-12-12T06:50:09.661Z,29.55
2022-12-12T06:52:36.189Z,31.80
2022-12-12T06:55:03.005Z,27.85
2022-12-12T06:57:29.600Z,31.83
2022-12-12T06:59:56.284Z,31.05
2022-12-12T07:02:29.295Z,28.35
2022-12-12T07:04:56.867Z,32.47
2022-12-12T07:07:23.519Z,35.45
2022-12-12T07:09:50.152Z,31.63
2022-12-12T07:12:16.684Z,30.67
2022-12-12T07:14:43.301Z,31.52
2022-12-12T07:17:09.825Z,32.72
2022-12-12T07:19:36.379Z,30.95
2022-12-12T07:22:09.310Z,34.60
2022-12-12T07:24:36.860Z,35.33
2022-12-12T07:27:04.172Z,35.30
2022-12-12T07:29:30.733Z,33.78
2022-12-12T07:31:57.539Z,30.17
2022-12-12T07:34:24.182Z,32.67
2022-12-12T07:36:50.882Z,35.58
2022-12-12T07:39:21.000Z,35.17
2022-12-12T07:41:48.245Z,32.55
2022-12-12T07:44:19.549Z,32.40
2022-12-12T07:46:52.202Z,29.92
2022-12-12T07:49:18.794Z,34.55
2022-12-12T07:51:48.885Z,34.17
2022-12-12T07:54:15.841Z,27.85
2022-12-12T07:56:42.449Z,30.42
2022-12-12T07:59:09.105Z,30.48
2022-12-12T08:01:35.780Z,28.38
2022-12-12T08:04:02.390Z,35.92
2022-12-12T08:06:28.929Z,32.22
2022-12-12T08:08:55.479Z,32.50
2022-12-12T08:11:23.888Z,35.08
2022-12-12T08:13:51.187Z,34.72
2022-12-12T08:16:21.246Z,35.45
2022-12-12T08:18:48.942Z,30.70
2022-12-12T08:21:21.459Z,32.58
2022-12-12T08:23:52.259Z,34.17
2022-12-12T08:26:19.061Z,34.20
2022-12-12T08:28:49.093Z,40.15
2022-12-12T08:31:17.529Z,30.77
2022-12-12T08:33:44.675Z,33.25
2022-12-12T08:36:16.354Z,33.30
2022-12-12T08:38:43.646Z,35.13
2022-12-12T08:41:11.527Z,32.40
2022-12-12T08:43:39.488Z,28.92
2022-12-12T08:46:11.004Z,31.67
2022-12-12T08:48:40.352Z,32.60
2022-12-12T08:51:07.344Z,31.70
2022-12-12T08:53:34.176Z,30.40
2022-12-12T08:56:00.831Z,33.22
2022-12-12T08:58:27.435Z,31.85
2022-12-12T09:00:54.101Z,34.97
2022-12-12T09:03:24.785Z,30.17
2022-12-12T09:05:55.448Z,32.33
2022-12-12T09:08:22.123Z,32.72
2022-12-12T09:10:50.528Z,32.53
2022-12-12T09:13:17.346Z,30.75
2022-12-12T09:15:43.919Z,30.00
2022-12-12T09:18:10.475Z,30.00
2022-12-12T09:20:37.026Z,30.90
2022-12-12T09:23:03.645Z,28.40
2022-12-12T09:25:32.057Z,30.67
2022-12-12T09:27:58.877Z,30.92
2022-12-12T09:30:25.448Z,32.03
2022-12-12T09:32:52.028Z,33.10
2022-12-12T09:35:18.524Z,32.78
2022-12-12T09:37:45.073Z,32.53
2022-12-12T09:40:19.255Z,36.25
2022-12-12T09:42:51.480Z,31.30
2022-12-12T09:45:20.122Z,31.40
2022-12-12T09:47:50.694Z,32.92
2022-12-12T09:50:41.698Z,31.85
2022-12-12T09:53:15.802Z,32.58
2022-12-12T09:55:53.658Z,34.90
2022-12-12T09:58:23.667Z,31.50
2022-12-12T10:01:05.079Z,31.88
2022-12-12T10:03:49.541Z,30.70
2022-12-12T10:09:25.128Z,27.13
2022-12-12T10:11:54.960Z,28.05
2022-12-12T10:14:33.005Z,33.15
2022-12-12T10:17:01.949Z,28.10
2022-12-12T10:19:35.278Z,29.63
2022-12-12T10:22:08.215Z,29.38
2022-12-12T10:24:53.283Z,29.70
2022-12-12T10:27:19.939Z,26.55
2022-12-12T10:29:48.638Z,29.30
2022-12-12T10:32:29.526Z,29.50
2022-12-12T10:35:27.001Z,27.13
2022-12-12T10:38:11.888Z,30.80
2022-12-12T10:40:57.645Z,28.80
2022-12-12T10:43:34.444Z,31.10
2022-12-12T10:46:31.046Z,25.10
2022-12-12T10:48:57.903Z,30.38
2022-12-12T10:51:27.890Z,27.17
2022-12-12T10:53:55.517Z,27.25
2022-12-12T10:56:25.688Z,28.33
2022-12-12T10:58:57.428Z,26.77
2022-12-12T11:02:09.216Z,26.00
2022-12-12T11:04:27.704Z,26.25
2022-12-12T11:06:56.262Z,21.63
2022-12-12T11:09:26.850Z,26.77
2022-12-12T11:12:02.055Z,24.42
2022-12-12T11:15:02.140Z,22.77
2022-12-12T11:17:36.067Z,25.73
2022-12-12T11:20:08.207Z,23.67
2022-12-12T11:22:38.761Z,27.90
2022-12-12T11:25:07.332Z,23.58
2022-12-12T11:27:40.580Z,20.27
2022-12-12T11:30:22.555Z,24.42
2022-12-12T11:32:52.085Z,23.77
2022-12-12T11:35:45.636Z,20.95
2022-12-12T11:38:18.715Z,23.13
2022-12-12T11:40:46.914Z,22.85
2022-12-12T11:43:27.478Z,20.02
2022-12-12T11:46:03.122Z,21.13
2022-12-12T11:48:51.579Z,23.25
2022-12-12T11:51:34.839Z,21.48
2022-12-12T11:54:04.716Z,21.63
2022-12-12T11:56:50.104Z,20.55
2022-12-12T11:59:28.584Z,21.35
2022-12-12T12:02:09.319Z,20.25
2022-12-12T12:04:53.228Z,22.48
2022-12-12T12:07:32.618Z,19.88
2022-12-12T12:10:43.605Z,20.70
2022-12-12T12:13:32.372Z,21.33
2022-12-12T12:16:15.819Z,20.52
2022-12-12T12:18:54.444Z,18.00
2022-12-12T12:21:28.746Z,19.95
2022-12-12T12:24:19.696Z,18.23
2022-12-12T12:27:00.933Z,20.23
2022-12-12T12:30:01.143Z,17.98
2022-12-12T12:32:36.719Z,20.30
2022-12-12T12:35:53.026Z,17.33
2022-12-12T12:38:46.584Z,18.83
2022-12-12T12:41:29.369Z,15.55
2022-12-12T12:44:04.415Z,19.63
2022-12-12T12:47:03.167Z,17.08
2022-12-12T12:49:51.716Z,19.63
2022-12-12T12:52:57.057Z,18.58
2022-12-12T12:55:28.688Z,17.77
2022-12-12T12:57:55.315Z,15.65
2022-12-12T13:00:26.713Z,15.48
2022-12-12T13:02:56.396Z,16.38
2022-12-12T13:05:45.341Z,17.73
2022-12-12T13:08:26.917Z,16.13
2022-12-12T13:10:59.680Z,16.40
2022-12-12T13:13:31.405Z,15.73
2022-12-12T13:16:18.048Z,16.27
2022-12-12T13:18:47.992Z,16.10
2022-12-12T13:21:25.050Z,18.02
2022-12-12T13:24:16.996Z,16.85
2022-12-12T13:26:55.776Z,15.27
2022-12-12T13:29:40.111Z,14.55
2022-12-12T13:32:18.898Z,17.17
2022-12-12T13:34:50.816Z,17.85
2022-12-12T13:37:20.919Z,14.75
2022-12-12T13:39:58.508Z,17.08
2022-12-12T13:42:25.172Z,15.45
2022-12-12T13:44:51.908Z,17.58
2022-12-12T13:47:24.628Z,16.27
2022-12-12T13:50:01.068Z,15.27
2022-12-12T13:52:33.085Z,19.35
2022-12-12T13:55:11.632Z,18.08
2022-12-12T13:58:17.155Z,19.42
2022-12-12T14:00:43.936Z,20.40
2022-12-12T14:03:10.475Z,17.48
2022-12-12T14:05:41.128Z,19.52
2022-12-12T14:08:10.690Z,18.30
2022-12-12T14:10:43.563Z,19.30
2022-12-12T14:13:17.386Z,21.63
2022-12-12T14:15:45.296Z,22.05
2022-12-12T14:18:29.965Z,19.10
2022-12-12T14:21:02.332Z,19.60
2022-12-12T14:23:30.477Z,19.65
2022-12-12T14:25:59.792Z,18.85
2022-12-12T14:28:31.915Z,19.35
2022-12-12T14:31:16.500Z,18.98
2022-12-12T14:33:46.077Z,19.15
2022-12-12T14:36:49.685Z,17.52
2022-12-12T14:39:51.559Z,19.30
2022-12-12T14:43:20.522Z,19.27
2022-12-12T14:45:37.253Z,20.90
2022-12-12T14:48:20.564Z,20.80
2022-12-12T14:50:49.767Z,18.38
2022-12-12T14:53:23.675Z,20.73
2022-12-12T14:56:00.437Z,18.08
2022-12-12T14:58:30.286Z,16.85
2022-12-12T15:00:59.822Z,18.88
2022-12-12T15:03:33.718Z,17.45
2022-12-12T15:06:18.756Z,19.20
2022-12-12T15:08:45.433Z,17.57
2022-12-12T15:11:16.841Z,22.02
2022-12-12T15:13:55.140Z,16.95
2022-12-12T15:16:29.740Z,18.55
2022-12-12T15:18:58.714Z,21.25
2022-12-12T15:21:25.695Z,18.13
2022-12-12T15:23:52.351Z,17.20
2022-12-12T15:26:26.295Z,21.23
2022-12-12T15:28:53.431Z,20.17
2022-12-12T15:31:20.839Z,19.55
2022-12-12T15:33:49.332Z,20.27
2022-12-12T15:36:28.383Z,19.50
2022-12-12T15:39:24.483Z,16.45
2022-12-12T15:41:51.149Z,18.58
2022-12-12T15:44:19.945Z,19.92
2022-12-12T15:46:48.282Z,16.40
2022-12-12T15:49:47.129Z,17.75
2022-12-12T15:52:21.199Z,19.52
2022-12-12T15:54:54.749Z,17.85
2022-12-12T15:57:25.764Z,16.20
2022-12-12T15:59:58.282Z,19.35
2022-12-12T16:02:33.037Z,16.73
2022-12-12T16:05:18.116Z,16.70
2022-12-12T16:07:44.953Z,18.10
2022-12-12T16:10:11.681Z,18.55
2022-12-12T16:12:58.591Z,19.70
2022-12-12T16:15:34.066Z,16.40
2022-12-12T16:20:33.174Z,17.42
2022-12-12T16:23:33.567Z,19.40
2022-12-12T16:26:00.185Z,16.48
2022-12-12T16:28:29.444Z,16.92
2022-12-12T16:31:04.408Z,16.90
2022-12-12T16:33:35.016Z,16.05
2022-12-12T16:36:07.617Z,18.88
2022-12-12T16:38:34.868Z,18.60
2022-12-12T16:41:06.756Z,15.15
2022-12-12T16:43:37.052Z,17.20
2022-12-12T16:46:03.834Z,18.50
2022-12-12T16:48:36.007Z,18.77
2022-12-12T16:51:06.183Z,18.35
2022-12-12T16:53:34.977Z,19.30
2022-12-12T16:56:02.716Z,19.10
2022-12-12T16:58:32.319Z,18.05
2022-12-12T17:01:00.340Z,19.92
2022-12-12T17:03:42.657Z,18.52
2022-12-12T17:06:09.292Z,21.65
2022-12-12T17:08:35.951Z,20.70
2022-12-12T17:11:10.040Z,21.40
2022-12-12T17:13:41.216Z,21.92
2022-12-12T17:16:07.861Z,18.25
2022-12-12T17:18:34.501Z,20.88
2022-12-12T17:21:01.035Z,19.25
2022-12-12T17:23:29.130Z,20.58
2022-12-12T17:26:01.062Z,24.00
2022-12-12T17:28:31.946Z,22.02
2022-12-12T17:30:58.689Z,20.73
2022-12-12T17:33:25.633Z,19.35
2022-12-12T17:35:59.571Z,18.48
2022-12-12T17:38:26.251Z,20.52
2022-12-12T17:40:54.012Z,20.40
2022-12-12T17:43:20.652Z,20.45
2022-12-12T17:45:57.328Z,18.25
2022-12-12T17:48:23.879Z,20.40
2022-12-12T17:51:01.645Z,21.77
2022-12-12T17:53:36.656Z,20.88
2022-12-12T17:56:08.182Z,17.05
2022-12-12T17:58:41.206Z,20.80
2022-12-12T18:01:20.685Z,17.15
2022-12-12T18:03:48.143Z,21.88
2022-12-12T18:06:15.811Z,21.67
2022-12-12T18:08:42.758Z,21.15
2022-12-12T18:11:11.628Z,18.33
2022-12-12T18:13:39.812Z,21.35
2022-12-12T18:16:10.620Z,19.33
2022-12-12T18:18:37.303Z,20.23
2022-12-12T18:21:05.859Z,16.42
2022-12-12T18:23:33.145Z,22.48
2022-12-12T18:26:08.910Z,19.75
2022-12-12T18:28:35.988Z,19.90
2022-12-12T18:31:03.632Z,19.08
2022-12-12T18:33:30.488Z,19.58
2022-12-12T18:36:01.771Z,19.63
2022-12-12T18:38:28.940Z,18.23
2022-12-12T18:40:55.561Z,24.90
2022-12-12T18:43:24.199Z,21.98
2022-12-12T18:45:50.868Z,21.45
2022-12-12T18:48:17.417Z,20.92
2022-12-12T18:50:43.940Z,18.65
2022-12-12T18:53:10.438Z,22.52
2022-12-12T18:55:43.614Z,16.92
2022-12-12T18:58:11.026Z,18.20
2022-12-12T19:00:40.309Z,16.95
2022-12-12T19:03:08.080Z,18.55
2022-12-12T19:05:40.396Z,18.05
2022-12-12T19:08:07.473Z,19.63
2022-12-12T19:10:35.978Z,20.98
2022-12-12T19:13:03.015Z,19.38
2022-12-12T19:15:29.748Z,24.35
2022-12-12T19:17:57.388Z,16.95
2022-12-12T19:20:24.949Z,21.45
2022-12-12T19:22:51.583Z,19.05
2022-12-12T19:25:18.859Z,21.77
2022-12-12T19:27:45.628Z,19.85
2022-12-12T19:30:13.608Z,21.35
2022-12-12T19:32:41.782Z,20.27
2022-12-12T19:35:08.614Z,23.52
2022-12-12T19:37:38.260Z,20.85
2022-12-12T19:40:05.253Z,20.95
2022-12-12T19:42:31.734Z,18.25
2022-12-12T19:44:58.236Z,20.08
2022-12-12T19:47:25.443Z,20.50
2022-12-12T19:49:52.022Z,23.13
2022-12-12T19:52:19.689Z,24.58
2022-12-12T19:54:46.332Z,23.13
2022-12-12T19:57:12.856Z,21.48
2022-12-12T19:59:39.528Z,24.55
2022-12-12T20:02:07.118Z,24.27
2022-12-12T20:04:33.709Z,24.50
2022-12-12T20:07:00.284Z,24.75
2022-12-12T20:09:29.268Z,22.95
2022-12-12T20:11:57.913Z,20.63
2022-12-12T20:14:26.903Z,22.90
2022-12-12T20:16:54.464Z,26.52
2022-12-12T20:19:22.343Z,24.50
2022-12-12T20:22:05.609Z,23.45
2022-12-12T20:24:33.681Z,26.33
2022-12-12T20:27:02.952Z,27.65
2022-12-12T20:29:29.437Z,23.75
2022-12-12T20:31:56.016Z,28.88
2022-12-12T20:34:24.399Z,27.40
2022-12-12T20:36:51.846Z,21.17
2022-12-12T20:39:20.878Z,23.25
2022-12-12T20:41:48.540Z,22.17
2022-12-12T20:44:15.323Z,22.58
2022-12-12T20:46:44.482Z,21.52
2022-12-12T20:49:16.114Z,22.08
2022-12-12T20:51:55.179Z,22.52
2022-12-12T20:54:24.419Z,24.20
2022-12-12T20:56:52.233Z,23.65
2022-12-12T20:59:18.819Z,23.42
2022-12-12T21:01:47.117Z,19.48
2022-12-12T21:04:14.146Z,23.85
2022-12-12T21:06:47.781Z,25.80
2022-12-12T21:09:22.791Z,22.70
2022-12-12T21:11:52.074Z,22.20
2022-12-12T21:14:18.823Z,26.40
2022-12-12T21:16:45.344Z,24.67
2022-12-12T21:19:13.642Z,22.23
2022-12-12T21:21:42.076Z,21.40
2022-12-12T21:24:11.963Z,26.15
2022-12-12T21:26:38.911Z,19.38
2022-12-12T21:29:05.813Z,21.00
2022-12-12T21:31:36.813Z,22.80
2022-12-12T21:34:05.303Z,25.40
2022-12-12T21:36:32.585Z,25.77
2022-12-12T21:39:01.127Z,24.27
2022-12-12T21:41:28.367Z,26.85
2022-12-12T21:43:59.381Z,21.90
2022-12-12T21:46:27.545Z,21.20
2022-12-12T21:49:12.716Z,25.38
2022-12-12T21:51:40.777Z,24.50
2022-12-12T21:54:09.426Z,21.90
2022-12-12T21:56:36.044Z,26.40
2022-12-12T21:59:03.370Z,22.15
2022-12-12T22:01:31.889Z,25.80
2022-12-12T22:03:59.497Z,26.30
2022-12-12T22:06:28.615Z,26.75
2022-12-12T22:08:56.305Z,26.85
2022-12-12T22:11:40.485Z,25.77
2022-12-12T22:14:10.824Z,21.85
2022-12-12T22:16:37.739Z,26.17
2022-12-12T22:19:08.082Z,21.17
2022-12-12T22:21:35.487Z,23.27
2022-12-12T22:24:02.524Z,25.98
2022-12-12T22:26:39.316Z,27.38
2022-12-12T22:29:09.907Z,29.33
2022-12-12T22:31:38.130Z,22.67
2022-12-12T22:34:12.348Z,25.63
2022-12-12T22:36:39.759Z,26.95
2022-12-12T22:39:08.460Z,26.98
2022-12-12T22:41:35.077Z,23.25
2022-12-12T22:44:04.091Z,27.40
2022-12-12T22:46:31.387Z,24.15
2022-12-12T22:49:00.336Z,23.63
2022-12-12T22:51:29.726Z,28.85
2022-12-12T22:53:57.952Z,28.42
2022-12-12T22:56:24.556Z,26.77
2022-12-12T22:58:51.095Z,31.38
2022-12-12T23:01:21.205Z,33.40
2022-12-12T23:03:48.550Z,28.25
2022-12-12T23:06:18.548Z,21.30
2022-12-12T23:08:50.894Z,23.35
2022-12-12T23:11:18.688Z,26.58
2022-12-12T23:13:45.653Z,25.95
2022-12-12T23:16:16.257Z,24.73
2022-12-12T23:18:43.844Z,28.33
2022-12-12T23:21:16.756Z,26.90
2022-12-12T23:23:44.845Z,26.83
2022-12-12T23:26:16.773Z,30.25
2022-12-12T23:28:44.246Z,26.90
2022-12-12T23:31:20.079Z,26.38
2022-12-12T23:33:47.004Z,27.63
2022-12-12T23:36:15.195Z,27.65
2022-12-12T23:38:42.515Z,27.08
2022-12-12T23:41:12.442Z,33.58
2022-12-12T23:43:40.283Z,33.58
2022-12-12T23:46:27.945Z,31.45
2022-12-12T23:48:59.410Z,32.25
2022-12-12T23:51:27.864Z,29.73
2022-12-12T23:53:57.682Z,29.98
2022-12-12T23:56:24.803Z,37.05
2022-12-12T23:58:58.472Z,31.35
